sensor_id;sensor_type;location;lat;lon;timestamp;pressure;altitude;pressure_sealevel;temperature;humidity
13420;BME280;6781;58.440;15.470;2022-07-22T00:00:48;100307.59;;;23.45;86.22
13420;BME280;6781;58.440;15.470;2022-07-22T00:03:15;100373.81;;;23.89;86.34
13420;BME280;6781;58.440;15.470;2022-07-22T00:05:42;100369.00;;;23.73;89.27
13420;BME280;6781;58.440;15.470;2022-07-22T00:08:10;100365.84;;;23.89;85.48
13420;BME280;6781;58.440;15.470;2022-07-22T00:10:37;100371.38;;;23.88;85.76
13420;BME280;6781;58.440;15.470;2022-07-22T00:13:04;100369.81;;;23.74;90.99
13420;BME280;6781;58.440;15.470;2022-07-22T00:15:31;100277.34;;;23.27;86.66
13420;BME280;6781;58.440;15.470;2022-07-22T00:17:58;100278.84;;;23.17;87.13
13420;BME280;6781;58.440;15.470;2022-07-22T00:20:25;100264.25;;;23.01;89.70
13420;BME280;6781;58.440;15.470;2022-07-22T00:22:52;100365.81;;;23.51;92.13
13420;BME280;6781;58.440;15.470;2022-07-22T00:25:20;100260.63;;;22.89;90.29
13420;BME280;6781;58.440;15.470;2022-07-22T00:27:47;100296.78;;;23.08;92.55
13420;BME280;6781;58.440;15.470;2022-07-22T00:30:14;100395.13;;;23.63;93.06
13420;BME280;6781;58.440;15.470;2022-07-22T00:32:41;100383.75;;;23.49;93.92
13420;BME280;6781;58.440;15.470;2022-07-22T00:35:09;100395.59;;;23.47;92.10
13420;BME280;6781;58.440;15.470;2022-07-22T00:37:36;100402.69;;;23.53;95.17
13420;BME280;6781;58.440;15.470;2022-07-22T00:40:03;100416.75;;;23.53;94.42
13420;BME280;6781;58.440;15.470;2022-07-22T00:42:32;100403.75;;;23.38;94.35
13420;BME280;6781;58.440;15.470;2022-07-22T00:44:59;100318.84;;;22.89;94.73
13420;BME280;6781;58.440;15.470;2022-07-22T00:47:26;100364.31;;;23.24;95.26
13420;BME280;6781;58.440;15.470;2022-07-22T00:49:53;100370.00;;;23.27;96.29
13420;BME280;6781;58.440;15.470;2022-07-22T00:52:22;100409.41;;;23.62;92.89
13420;BME280;6781;58.440;15.470;2022-07-22T00:54:49;100327.94;;;23.06;98.25
13420;BME280;6781;58.440;15.470;2022-07-22T00:57:17;100371.19;;;23.38;96.22
13420;BME280;6781;58.440;15.470;2022-07-22T00:59:45;100222.16;;;22.35;97.51
13420;BME280;6781;58.440;15.470;2022-07-22T01:02:12;100426.72;;;23.64;94.29
13420;BME280;6781;58.440;15.470;2022-07-22T01:04:39;100325.38;;;22.80;98.95
13420;BME280;6781;58.440;15.470;2022-07-22T01:07:06;100432.25;;;23.56;98.98
13420;BME280;6781;58.440;15.470;2022-07-22T01:09:33;100299.72;;;22.80;97.62
13420;BME280;6781;58.440;15.470;2022-07-22T01:12:01;100429.81;;;23.55;99.47
13420;BME280;6781;58.440;15.470;2022-07-22T01:14:28;100286.69;;;22.79;99.91
13420;BME280;6781;58.440;15.470;2022-07-22T01:16:56;100414.69;;;23.62;97.11
13420;BME280;6781;58.440;15.470;2022-07-22T01:19:23;100420.00;;;23.62;98.48
13420;BME280;6781;58.440;15.470;2022-07-22T01:21:51;100422.03;;;23.60;98.97
13420;BME280;6781;58.440;15.470;2022-07-22T01:24:17;100414.28;;;23.65;97.12
13420;BME280;6781;58.440;15.470;2022-07-22T01:26:44;100432.22;;;23.63;98.11
13420;BME280;6781;58.440;15.470;2022-07-22T01:29:11;100211.81;;;22.27;100.00
13420;BME280;6781;58.440;15.470;2022-07-22T01:31:38;100348.28;;;23.12;100.00
13420;BME280;6781;58.440;15.470;2022-07-22T01:34:05;100424.47;;;23.61;97.09
13420;BME280;6781;58.440;15.470;2022-07-22T01:36:32;100413.91;;;23.55;100.00
13420;BME280;6781;58.440;15.470;2022-07-22T01:39:00;100314.59;;;22.81;100.00
13420;BME280;6781;58.440;15.470;2022-07-22T01:41:27;100402.13;;;23.37;100.00
13420;BME280;6781;58.440;15.470;2022-07-22T01:43:54;100397.25;;;23.34;100.00
13420;BME280;6781;58.440;15.470;2022-07-22T01:46:20;100383.06;;;23.22;100.00
13420;BME280;6781;58.440;15.470;2022-07-22T01:48:49;100385.84;;;23.34;100.00
13420;BME280;6781;58.440;15.470;2022-07-22T01:51:16;100391.78;;;23.29;100.00
13420;BME280;6781;58.440;15.470;2022-07-22T01:53:43;100410.09;;;23.31;100.00
13420;BME280;6781;58.440;15.470;2022-07-22T01:56:12;100403.38;;;23.35;100.00
13420;BME280;6781;58.440;15.470;2022-07-22T01:58:40;100401.34;;;23.30;100.00
13420;BME280;6781;58.440;15.470;2022-07-22T02:01:07;100387.56;;;23.15;100.00
13420;BME280;6781;58.440;15.470;2022-07-22T02:03:35;100404.63;;;23.26;100.00
13420;BME280;6781;58.440;15.470;2022-07-22T02:08:37;100407.91;;;23.21;100.00
13420;BME280;6781;58.440;15.470;2022-07-22T02:11:05;100391.25;;;23.01;100.00
13420;BME280;6781;58.440;15.470;2022-07-22T02:13:33;100320.09;;;22.60;100.00
13420;BME280;6781;58.440;15.470;2022-07-22T02:16:00;100371.53;;;22.77;100.00
13420;BME280;6781;58.440;15.470;2022-07-22T02:18:27;100367.25;;;22.76;100.00
13420;BME280;6781;58.440;15.470;2022-07-22T02:20:54;100349.63;;;22.37;100.00
13420;BME280;6781;58.440;15.470;2022-07-22T02:23:21;100266.47;;;21.80;100.00
13420;BME280;6781;58.440;15.470;2022-07-22T02:25:48;100335.19;;;22.20;100.00
13420;BME280;6781;58.440;15.470;2022-07-22T02:28:16;100429.34;;;22.87;100.00
13420;BME280;6781;58.440;15.470;2022-07-22T02:30:44;100363.06;;;22.35;100.00
13420;BME280;6781;58.440;15.470;2022-07-22T02:33:11;100444.19;;;22.81;100.00
13420;BME280;6781;58.440;15.470;2022-07-22T02:35:42;100302.22;;;21.89;100.00
13420;BME280;6781;58.440;15.470;2022-07-22T02:38:09;100460.44;;;22.78;100.00
13420;BME280;6781;58.440;15.470;2022-07-22T02:40:36;100443.75;;;22.71;100.00
13420;BME280;6781;58.440;15.470;2022-07-22T02:43:03;100441.31;;;22.63;100.00
13420;BME280;6781;58.440;15.470;2022-07-22T02:45:31;100455.16;;;22.58;100.00
13420;BME280;6781;58.440;15.470;2022-07-22T02:48:00;100465.13;;;22.63;100.00
13420;BME280;6781;58.440;15.470;2022-07-22T02:50:27;100423.63;;;22.37;100.00
13420;BME280;6781;58.440;15.470;2022-07-22T02:52:53;100345.28;;;21.76;100.00
13420;BME280;6781;58.440;15.470;2022-07-22T02:55:20;100425.69;;;22.35;100.00
13420;BME280;6781;58.440;15.470;2022-07-22T02:57:47;100312.53;;;21.51;100.00
13420;BME280;6781;58.440;15.470;2022-07-22T03:00:14;100428.50;;;22.27;100.00
13420;BME280;6781;58.440;15.470;2022-07-22T03:02:41;100479.16;;;22.63;100.00
13420;BME280;6781;58.440;15.470;2022-07-22T03:05:11;100477.94;;;22.53;100.00
13420;BME280;6781;58.440;15.470;2022-07-22T03:07:38;100381.69;;;21.94;100.00
13420;BME280;6781;58.440;15.470;2022-07-22T03:10:05;100346.09;;;21.77;100.00
13420;BME280;6781;58.440;15.470;2022-07-22T03:12:33;100406.53;;;22.13;100.00
13420;BME280;6781;58.440;15.470;2022-07-22T03:15:00;100430.16;;;22.48;100.00
13420;BME280;6781;58.440;15.470;2022-07-22T03:17:27;100299.75;;;21.61;100.00
13420;BME280;6781;58.440;15.470;2022-07-22T03:19:54;100462.28;;;22.64;100.00
13420;BME280;6781;58.440;15.470;2022-07-22T03:22:22;100412.25;;;22.30;100.00
13420;BME280;6781;58.440;15.470;2022-07-22T03:24:48;100451.50;;;22.59;100.00
13420;BME280;6781;58.440;15.470;2022-07-22T03:27:15;100457.19;;;22.69;100.00
13420;BME280;6781;58.440;15.470;2022-07-22T03:29:42;100417.75;;;22.48;100.00
13420;BME280;6781;58.440;15.470;2022-07-22T03:32:09;100454.94;;;22.66;100.00
13420;BME280;6781;58.440;15.470;2022-07-22T03:34:36;100414.91;;;22.36;100.00
13420;BME280;6781;58.440;15.470;2022-07-22T03:37:03;100377.25;;;22.08;100.00
13420;BME280;6781;58.440;15.470;2022-07-22T03:39:31;100365.69;;;22.16;100.00
13420;BME280;6781;58.440;15.470;2022-07-22T03:41:58;100379.09;;;22.21;100.00
13420;BME280;6781;58.440;15.470;2022-07-22T03:44:25;100452.50;;;22.58;100.00
13420;BME280;6781;58.440;15.470;2022-07-22T03:46:52;100324.16;;;21.83;100.00
13420;BME280;6781;58.440;15.470;2022-07-22T03:49:19;100451.69;;;22.58;100.00
13420;BME280;6781;58.440;15.470;2022-07-22T03:51:45;100252.59;;;21.32;100.00
13420;BME280;6781;58.440;15.470;2022-07-22T03:54:12;100397.81;;;22.39;100.00
13420;BME280;6781;58.440;15.470;2022-07-22T03:56:40;100449.88;;;22.71;100.00
13420;BME280;6781;58.440;15.470;2022-07-22T03:59:07;100406.75;;;22.64;100.00
13420;BME280;6781;58.440;15.470;2022-07-22T04:01:34;100398.19;;;22.69;100.00
13420;BME280;6781;58.440;15.470;2022-07-22T04:04:01;100425.84;;;22.99;100.00
13420;BME280;6781;58.440;15.470;2022-07-22T04:06:27;100416.53;;;22.84;100.00
13420;BME280;6781;58.440;15.470;2022-07-22T04:08:54;100323.59;;;22.47;100.00
13420;BME280;6781;58.440;15.470;2022-07-22T04:11:21;100366.84;;;22.72;100.00
13420;BME280;6781;58.440;15.470;2022-07-22T04:13:49;100395.34;;;22.90;100.00
13420;BME280;6781;58.440;15.470;2022-07-22T04:16:16;100375.81;;;22.71;100.00
13420;BME280;6781;58.440;15.470;2022-07-22T04:18:43;100438.63;;;23.22;100.00
13420;BME280;6781;58.440;15.470;2022-07-22T04:21:10;100415.50;;;22.91;100.00
13420;BME280;6781;58.440;15.470;2022-07-22T04:23:36;100463.88;;;23.18;100.00
13420;BME280;6781;58.440;15.470;2022-07-22T04:26:05;100449.84;;;23.18;100.00
13420;BME280;6781;58.440;15.470;2022-07-22T04:28:32;100452.88;;;23.21;100.00
13420;BME280;6781;58.440;15.470;2022-07-22T04:31:01;100429.50;;;22.79;100.00
13420;BME280;6781;58.440;15.470;2022-07-22T04:33:28;100353.28;;;22.36;100.00
13420;BME280;6781;58.440;15.470;2022-07-22T04:35:55;100383.19;;;22.43;100.00
13420;BME280;6781;58.440;15.470;2022-07-22T04:38:22;100460.47;;;22.98;100.00
13420;BME280;6781;58.440;15.470;2022-07-22T04:40:49;100477.94;;;23.12;100.00
13420;BME280;6781;58.440;15.470;2022-07-22T04:43:15;100355.53;;;22.52;100.00
13420;BME280;6781;58.440;15.470;2022-07-22T04:45:42;100388.03;;;22.79;100.00
13420;BME280;6781;58.440;15.470;2022-07-22T04:48:11;100379.88;;;22.74;100.00
13420;BME280;6781;58.440;15.470;2022-07-22T04:50:38;100472.41;;;23.33;100.00
13420;BME280;6781;58.440;15.470;2022-07-22T04:53:04;100465.25;;;23.41;100.00
13420;BME280;6781;58.440;15.470;2022-07-22T04:55:31;100349.59;;;22.63;100.00
13420;BME280;6781;58.440;15.470;2022-07-22T04:57:58;100248.19;;;21.98;100.00
13420;BME280;6781;58.440;15.470;2022-07-22T05:00:25;100389.41;;;23.08;100.00
13420;BME280;6781;58.440;15.470;2022-07-22T05:02:52;100474.19;;;23.53;100.00
13420;BME280;6781;58.440;15.470;2022-07-22T05:05:20;100487.66;;;23.58;100.00
13420;BME280;6781;58.440;15.470;2022-07-22T05:07:49;100417.28;;;23.11;100.00
13420;BME280;6781;58.440;15.470;2022-07-22T05:10:16;100447.59;;;23.21;100.00
13420;BME280;6781;58.440;15.470;2022-07-22T05:12:43;100359.53;;;22.74;100.00
13420;BME280;6781;58.440;15.470;2022-07-22T05:15:10;100442.25;;;23.34;100.00
13420;BME280;6781;58.440;15.470;2022-07-22T05:17:37;100404.06;;;23.04;100.00
13420;BME280;6781;58.440;15.470;2022-07-22T05:20:05;100267.31;;;22.14;100.00
13420;BME280;6781;58.440;15.470;2022-07-22T05:22:34;100444.84;;;23.61;100.00
13420;BME280;6781;58.440;15.470;2022-07-22T05:25:01;100382.88;;;23.17;100.00
13420;BME280;6781;58.440;15.470;2022-07-22T05:27:28;100332.59;;;23.11;100.00
13420;BME280;6781;58.440;15.470;2022-07-22T05:29:54;100268.22;;;22.65;100.00
13420;BME280;6781;58.440;15.470;2022-07-22T05:32:23;100319.28;;;22.59;100.00
13420;BME280;6781;58.440;15.470;2022-07-22T05:34:50;100398.53;;;23.19;100.00
13420;BME280;6781;58.440;15.470;2022-07-22T05:37:17;100481.47;;;23.77;100.00
13420;BME280;6781;58.440;15.470;2022-07-22T05:39:45;100490.88;;;23.73;100.00
13420;BME280;6781;58.440;15.470;2022-07-22T05:42:12;100419.63;;;23.45;100.00
13420;BME280;6781;58.440;15.470;2022-07-22T05:44:38;100516.09;;;23.82;100.00
13420;BME280;6781;58.440;15.470;2022-07-22T05:47:06;100479.44;;;23.73;100.00
13420;BME280;6781;58.440;15.470;2022-07-22T05:49:32;100486.72;;;23.90;100.00
13420;BME280;6781;58.440;15.470;2022-07-22T05:51:59;100451.31;;;23.78;100.00
13420;BME280;6781;58.440;15.470;2022-07-22T05:54:26;100491.19;;;23.90;100.00
13420;BME280;6781;58.440;15.470;2022-07-22T05:56:55;100492.78;;;24.04;100.00
13420;BME280;6781;58.440;15.470;2022-07-22T05:59:22;100482.13;;;24.11;100.00
13420;BME280;6781;58.440;15.470;2022-07-22T06:01:49;100484.84;;;23.97;100.00
13420;BME280;6781;58.440;15.470;2022-07-22T06:04:16;100410.25;;;23.56;100.00
13420;BME280;6781;58.440;15.470;2022-07-22T06:06:43;100354.09;;;23.34;100.00
13420;BME280;6781;58.440;15.470;2022-07-22T06:09:10;100422.03;;;23.53;100.00
13420;BME280;6781;58.440;15.470;2022-07-22T06:11:37;100496.53;;;23.83;100.00
13420;BME280;6781;58.440;15.470;2022-07-22T06:14:06;100490.56;;;23.94;100.00
13420;BME280;6781;58.440;15.470;2022-07-22T06:16:46;100467.91;;;23.98;100.00
13420;BME280;6781;58.440;15.470;2022-07-22T06:19:14;100462.13;;;24.15;100.00
13420;BME280;6781;58.440;15.470;2022-07-22T06:21:41;100433.53;;;23.85;100.00
13420;BME280;6781;58.440;15.470;2022-07-22T06:24:07;100417.41;;;23.93;100.00
13420;BME280;6781;58.440;15.470;2022-07-22T06:26:34;100497.47;;;24.40;100.00
13420;BME280;6781;58.440;15.470;2022-07-22T06:29:02;100488.97;;;24.56;100.00
13420;BME280;6781;58.440;15.470;2022-07-22T06:31:31;100456.75;;;24.28;100.00
13420;BME280;6781;58.440;15.470;2022-07-22T06:33:58;100485.94;;;24.53;100.00
13420;BME280;6781;58.440;15.470;2022-07-22T06:36:25;100431.50;;;24.19;100.00
13420;BME280;6781;58.440;15.470;2022-07-22T06:38:52;100400.94;;;24.16;98.65
13420;BME280;6781;58.440;15.470;2022-07-22T06:41:19;100339.59;;;23.81;98.79
13420;BME280;6781;58.440;15.470;2022-07-22T06:43:46;100367.44;;;23.59;100.00
13420;BME280;6781;58.440;15.470;2022-07-22T06:46:13;100347.38;;;23.76;99.26
13420;BME280;6781;58.440;15.470;2022-07-22T06:48:42;100486.00;;;24.46;99.98
13420;BME280;6781;58.440;15.470;2022-07-22T06:51:09;100505.50;;;24.58;100.00
13420;BME280;6781;58.440;15.470;2022-07-22T06:53:36;100357.53;;;23.86;100.00
13420;BME280;6781;58.440;15.470;2022-07-22T06:56:03;100276.00;;;23.50;99.11
13420;BME280;6781;58.440;15.470;2022-07-22T06:58:30;100418.94;;;24.39;98.25
13420;BME280;6781;58.440;15.470;2022-07-22T07:00:58;100495.53;;;25.28;95.98
13420;BME280;6781;58.440;15.470;2022-07-22T07:03:25;100486.50;;;25.11;96.61
13420;BME280;6781;58.440;15.470;2022-07-22T07:05:53;100491.84;;;25.29;95.77
13420;BME280;6781;58.440;15.470;2022-07-22T07:08:20;100449.81;;;25.26;94.45
13420;BME280;6781;58.440;15.470;2022-07-22T07:10:47;100448.91;;;25.14;93.40
13420;BME280;6781;58.440;15.470;2022-07-22T07:13:15;100285.47;;;24.45;89.73
13420;BME280;6781;58.440;15.470;2022-07-22T07:15:42;100489.06;;;25.61;88.78
13420;BME280;6781;58.440;15.470;2022-07-22T07:18:23;100502.19;;;25.56;87.85
13420;BME280;6781;58.440;15.470;2022-07-22T07:20:59;100451.13;;;25.17;90.68
13420;BME280;6781;58.440;15.470;2022-07-22T07:23:25;100452.81;;;25.12;91.56
13420;BME280;6781;58.440;15.470;2022-07-22T07:25:52;100493.13;;;25.63;90.78
13420;BME280;6781;58.440;15.470;2022-07-22T07:28:19;100484.63;;;25.91;89.42
13420;BME280;6781;58.440;15.470;2022-07-22T07:30:46;100358.91;;;25.24;88.21
13420;BME280;6781;58.440;15.470;2022-07-22T07:33:13;100426.94;;;25.44;87.23
13420;BME280;6781;58.440;15.470;2022-07-22T07:35:40;100497.09;;;25.91;86.56
13420;BME280;6781;58.440;15.470;2022-07-22T07:38:08;100472.44;;;25.84;86.60
13420;BME280;6781;58.440;15.470;2022-07-22T07:40:35;100487.47;;;26.20;84.07
13420;BME280;6781;58.440;15.470;2022-07-22T07:43:02;100430.25;;;25.57;82.47
13420;BME280;6781;58.440;15.470;2022-07-22T07:45:28;100492.22;;;26.18;82.77
13420;BME280;6781;58.440;15.470;2022-07-22T07:47:55;100433.84;;;25.81;81.48
13420;BME280;6781;58.440;15.470;2022-07-22T07:50:23;100441.81;;;25.81;83.74
13420;BME280;6781;58.440;15.470;2022-07-22T07:52:50;100490.88;;;26.27;82.90
13420;BME280;6781;58.440;15.470;2022-07-22T07:55:19;100485.84;;;26.37;83.10
13420;BME280;6781;58.440;15.470;2022-07-22T07:57:46;100487.75;;;26.30;84.46
13420;BME280;6781;58.440;15.470;2022-07-22T08:00:15;100500.69;;;26.56;81.88
13420;BME280;6781;58.440;15.470;2022-07-22T08:02:42;100503.72;;;26.72;82.31
13420;BME280;6781;58.440;15.470;2022-07-22T08:05:10;100480.94;;;26.76;79.17
13420;BME280;6781;58.440;15.470;2022-07-22T08:07:37;100436.03;;;26.26;77.75
13420;BME280;6781;58.440;15.470;2022-07-22T08:10:06;100357.56;;;26.35;76.15
13420;BME280;6781;58.440;15.470;2022-07-22T08:12:34;100466.78;;;26.64;73.96
13420;BME280;6781;58.440;15.470;2022-07-22T08:15:01;100459.41;;;26.66;74.39
13420;BME280;6781;58.440;15.470;2022-07-22T08:17:28;100360.00;;;26.37;75.58
13420;BME280;6781;58.440;15.470;2022-07-22T08:19:55;100343.69;;;26.33;74.53
13420;BME280;6781;58.440;15.470;2022-07-22T08:22:22;100435.44;;;26.77;74.29
13420;BME280;6781;58.440;15.470;2022-07-22T08:24:50;100351.84;;;26.20;74.69
13420;BME280;6781;58.440;15.470;2022-07-22T08:27:19;100476.91;;;26.97;74.68
13420;BME280;6781;58.440;15.470;2022-07-22T08:29:47;100409.41;;;26.68;74.15
13420;BME280;6781;58.440;15.470;2022-07-22T08:32:14;100481.22;;;27.09;73.30
13420;BME280;6781;58.440;15.470;2022-07-22T08:34:41;100434.03;;;26.51;73.33
13420;BME280;6781;58.440;15.470;2022-07-22T08:37:08;100428.50;;;27.23;72.93
13420;BME280;6781;58.440;15.470;2022-07-22T08:39:35;100407.31;;;26.93;71.84
13420;BME280;6781;58.440;15.470;2022-07-22T08:42:04;100422.88;;;27.76;68.89
13420;BME280;6781;58.440;15.470;2022-07-22T08:44:32;100445.81;;;28.51;67.66
13420;BME280;6781;58.440;15.470;2022-07-22T08:47:01;100332.56;;;27.63;64.82
13420;BME280;6781;58.440;15.470;2022-07-22T08:49:29;100242.25;;;27.83;62.38
13420;BME280;6781;58.440;15.470;2022-07-22T08:51:56;100404.91;;;29.66;61.41
13420;BME280;6781;58.440;15.470;2022-07-22T08:54:23;100453.91;;;29.50;59.04
13420;BME280;6781;58.440;15.470;2022-07-22T08:56:52;100316.34;;;28.87;58.99
13420;BME280;6781;58.440;15.470;2022-07-22T08:59:19;100239.59;;;28.61;58.08
13420;BME280;6781;58.440;15.470;2022-07-22T09:02:05;100337.25;;;28.57;58.17
13420;BME280;6781;58.440;15.470;2022-07-22T09:04:50;100382.19;;;28.98;58.42
13420;BME280;6781;58.440;15.470;2022-07-22T09:07:24;100253.53;;;28.24;56.71
13420;BME280;6781;58.440;15.470;2022-07-22T09:09:51;100309.66;;;29.60;57.44
13420;BME280;6781;58.440;15.470;2022-07-22T09:12:18;100206.97;;;28.15;55.92
13420;BME280;6781;58.440;15.470;2022-07-22T09:14:46;100439.94;;;29.92;56.18
13420;BME280;6781;58.440;15.470;2022-07-22T09:17:26;100442.16;;;30.00;57.22
13420;BME280;6781;58.440;15.470;2022-07-22T09:19:54;100312.69;;;29.42;56.63
13420;BME280;6781;58.440;15.470;2022-07-22T09:22:36;100294.34;;;28.41;56.84
13420;BME280;6781;58.440;15.470;2022-07-22T09:25:21;100374.25;;;29.03;57.63
13420;BME280;6781;58.440;15.470;2022-07-22T09:27:50;100455.59;;;28.79;59.37
13420;BME280;6781;58.440;15.470;2022-07-22T09:30:21;100429.25;;;29.92;58.11
13420;BME280;6781;58.440;15.470;2022-07-22T09:32:51;100309.13;;;29.63;57.11
13420;BME280;6781;58.440;15.470;2022-07-22T09:35:20;100293.69;;;29.17;55.64
13420;BME280;6781;58.440;15.470;2022-07-22T09:37:52;100389.22;;;29.04;57.93
13420;BME280;6781;58.440;15.470;2022-07-22T09:40:20;100425.28;;;28.51;57.97
13420;BME280;6781;58.440;15.470;2022-07-22T09:42:50;100430.28;;;28.31;59.10
13420;BME280;6781;58.440;15.470;2022-07-22T09:45:18;100432.16;;;28.02;59.42
13420;BME280;6781;58.440;15.470;2022-07-22T09:47:46;100402.47;;;28.61;59.98
13420;BME280;6781;58.440;15.470;2022-07-22T09:50:17;100431.25;;;27.97;61.37
13420;BME280;6781;58.440;15.470;2022-07-22T09:52:45;100303.03;;;27.53;60.86
13420;BME280;6781;58.440;15.470;2022-07-22T09:55:13;100446.25;;;28.14;62.12
13420;BME280;6781;58.440;15.470;2022-07-22T09:57:41;100416.38;;;28.29;61.90
13420;BME280;6781;58.440;15.470;2022-07-22T10:00:08;100328.41;;;27.27;61.77
13420;BME280;6781;58.440;15.470;2022-07-22T10:02:41;100441.16;;;27.68;62.52
13420;BME280;6781;58.440;15.470;2022-07-22T10:05:10;100396.41;;;27.86;62.35
13420;BME280;6781;58.440;15.470;2022-07-22T10:07:41;100445.78;;;28.17;61.95
13420;BME280;6781;58.440;15.470;2022-07-22T10:10:10;100426.56;;;28.49;62.08
13420;BME280;6781;58.440;15.470;2022-07-22T10:12:37;100371.31;;;29.05;60.47
13420;BME280;6781;58.440;15.470;2022-07-22T10:15:05;100409.28;;;29.77;58.23
13420;BME280;6781;58.440;15.470;2022-07-22T10:17:33;100406.38;;;30.06;57.14
13420;BME280;6781;58.440;15.470;2022-07-22T10:20:01;100387.22;;;30.19;56.19
13420;BME280;6781;58.440;15.470;2022-07-22T10:23:03;100415.69;;;31.10;55.66
13420;BME280;6781;58.440;15.470;2022-07-22T10:25:31;100394.66;;;30.81;55.08
13420;BME280;6781;58.440;15.470;2022-07-22T10:27:59;100372.06;;;30.30;55.09
13420;BME280;6781;58.440;15.470;2022-07-22T10:30:29;100417.41;;;30.09;56.62
13420;BME280;6781;58.440;15.470;2022-07-22T10:33:07;100268.69;;;29.01;56.64
13420;BME280;6781;58.440;15.470;2022-07-22T10:35:37;100379.63;;;29.30;58.02
13420;BME280;6781;58.440;15.470;2022-07-22T10:38:17;100280.84;;;28.70;58.13
13420;BME280;6781;58.440;15.470;2022-07-22T10:40:49;100399.38;;;28.69;58.21
13420;BME280;6781;58.440;15.470;2022-07-22T10:43:18;100423.19;;;28.54;61.08
13420;BME280;6781;58.440;15.470;2022-07-22T10:45:48;100416.03;;;28.76;61.20
13420;BME280;6781;58.440;15.470;2022-07-22T10:48:23;100418.59;;;28.04;61.46
13420;BME280;6781;58.440;15.470;2022-07-22T10:50:53;100421.25;;;28.04;61.45
13420;BME280;6781;58.440;15.470;2022-07-22T10:53:24;100363.75;;;27.79;63.82
13420;BME280;6781;58.440;15.470;2022-07-22T10:58:48;100308.81;;;28.12;62.12
13420;BME280;6781;58.440;15.470;2022-07-22T11:01:17;100402.69;;;28.76;60.10
13420;BME280;6781;58.440;15.470;2022-07-22T11:03:46;100386.94;;;28.58;61.81
13420;BME280;6781;58.440;15.470;2022-07-22T11:06:31;100233.56;;;28.10;60.85
13420;BME280;6781;58.440;15.470;2022-07-22T11:09:00;100256.00;;;27.30;63.12
13420;BME280;6781;58.440;15.470;2022-07-22T11:11:35;100285.50;;;27.40;62.65
13420;BME280;6781;58.440;15.470;2022-07-22T11:14:12;100354.31;;;27.03;65.17
13420;BME280;6781;58.440;15.470;2022-07-22T11:16:39;100336.56;;;27.09;65.42
13420;BME280;6781;58.440;15.470;2022-07-22T11:19:06;100388.34;;;27.98;65.44
13420;BME280;6781;58.440;15.470;2022-07-22T11:21:33;100362.19;;;28.12;64.53
13420;BME280;6781;58.440;15.470;2022-07-22T11:24:04;100360.25;;;28.24;64.65
13420;BME280;6781;58.440;15.470;2022-07-22T11:26:36;100409.88;;;27.51;64.41
13420;BME280;6781;58.440;15.470;2022-07-22T11:29:04;100419.22;;;27.94;65.84
13420;BME280;6781;58.440;15.470;2022-07-22T11:31:31;100393.25;;;28.51;63.52
13420;BME280;6781;58.440;15.470;2022-07-22T11:34:05;100382.19;;;28.98;61.91
13420;BME280;6781;58.440;15.470;2022-07-22T11:36:33;100365.22;;;28.71;61.02
13420;BME280;6781;58.440;15.470;2022-07-22T11:39:02;100380.13;;;28.83;61.02
13420;BME280;6781;58.440;15.470;2022-07-22T11:41:30;100353.88;;;28.80;60.67
13420;BME280;6781;58.440;15.470;2022-07-22T11:43:57;100377.03;;;28.75;60.15
13420;BME280;6781;58.440;15.470;2022-07-22T11:46:24;100374.97;;;29.21;59.66
13420;BME280;6781;58.440;15.470;2022-07-22T11:48:52;100357.75;;;29.33;59.05
13420;BME280;6781;58.440;15.470;2022-07-22T11:51:19;100329.88;;;29.02;60.07
13420;BME280;6781;58.440;15.470;2022-07-22T11:53:46;100338.16;;;29.50;59.23
13420;BME280;6781;58.440;15.470;2022-07-22T11:56:14;100372.50;;;29.90;58.49
13420;BME280;6781;58.440;15.470;2022-07-22T11:58:43;100330.16;;;28.45;59.96
13420;BME280;6781;58.440;15.470;2022-07-22T12:01:12;100371.34;;;28.33;59.67
13420;BME280;6781;58.440;15.470;2022-07-22T12:03:41;100392.50;;;27.77;61.58
13420;BME280;6781;58.440;15.470;2022-07-22T12:06:11;100346.53;;;27.42;63.29
13420;BME280;6781;58.440;15.470;2022-07-22T12:08:43;100287.16;;;27.92;62.87
13420;BME280;6781;58.440;15.470;2022-07-22T12:11:11;100287.94;;;29.03;59.64
13420;BME280;6781;58.440;15.470;2022-07-22T12:13:43;100321.09;;;30.15;56.91
13420;BME280;6781;58.440;15.470;2022-07-22T12:16:18;100353.13;;;29.77;55.37
13420;BME280;6781;58.440;15.470;2022-07-22T12:18:51;100366.81;;;29.81;58.01
13420;BME280;6781;58.440;15.470;2022-07-22T12:21:18;100360.19;;;29.35;57.24
13420;BME280;6781;58.440;15.470;2022-07-22T12:23:50;100328.63;;;28.88;58.32
13420;BME280;6781;58.440;15.470;2022-07-22T12:26:17;100324.59;;;28.47;58.56
13420;BME280;6781;58.440;15.470;2022-07-22T12:28:46;100252.91;;;27.83;59.72
13420;BME280;6781;58.440;15.470;2022-07-22T12:31:13;100359.03;;;28.48;59.87
13420;BME280;6781;58.440;15.470;2022-07-22T12:33:47;100280.00;;;28.47;59.79
13420;BME280;6781;58.440;15.470;2022-07-22T12:36:14;100378.84;;;29.30;59.23
13420;BME280;6781;58.440;15.470;2022-07-22T12:38:42;100334.84;;;29.15;58.42
13420;BME280;6781;58.440;15.470;2022-07-22T12:41:23;100362.81;;;29.84;59.27
13420;BME280;6781;58.440;15.470;2022-07-22T12:43:51;100271.78;;;29.14;58.64
13420;BME280;6781;58.440;15.470;2022-07-22T12:46:18;100360.69;;;30.13;58.78
13420;BME280;6781;58.440;15.470;2022-07-22T12:48:50;100343.34;;;29.61;57.90
13420;BME280;6781;58.440;15.470;2022-07-22T12:51:21;100345.66;;;28.65;58.53
13420;BME280;6781;58.440;15.470;2022-07-22T12:53:48;100387.03;;;28.29;60.04
13420;BME280;6781;58.440;15.470;2022-07-22T12:56:14;100366.19;;;28.81;60.36